createdAt,value
2017-11-24T00:01:29.314Z,9.60
2017-11-24T00:03:56.829Z,9.50
2017-11-24T00:06:24.326Z,9.60
2017-11-24T00:08:51.845Z,9.70
2017-11-24T00:11:19.341Z,9.80
2017-11-24T00:13:46.842Z,9.80
2017-11-24T00:16:14.353Z,9.80
2017-11-24T00:18:41.857Z,9.80
2017-11-24T00:21:09.371Z,9.80
2017-11-24T00:23:37.631Z,9.80
2017-11-24T00:26:05.137Z,9.70
2017-11-24T00:28:32.645Z,9.70
2017-11-24T00:31:00.923Z,9.70
2017-11-24T00:33:28.435Z,9.60
2017-11-24T00:35:55.938Z,9.70
2017-11-24T00:38:23.457Z,9.70
2017-11-24T00:40:50.949Z,9.70
2017-11-24T00:43:18.450Z,9.70
2017-11-24T00:45:45.968Z,9.70
2017-11-24T00:48:13.480Z,9.70
2017-11-24T00:50:40.993Z,9.70
2017-11-24T00:53:08.490Z,9.70
2017-11-24T00:55:35.990Z,9.60
2017-11-24T00:58:03.514Z,9.70
2017-11-24T01:00:31.022Z,9.60
2017-11-24T01:02:58.540Z,9.60
2017-11-24T01:05:26.038Z,9.60
2017-11-24T01:07:53.554Z,9.70
2017-11-24T01:10:21.049Z,9.70
2017-11-24T01:12:48.558Z,9.70
2017-11-24T01:15:16.070Z,9.70
2017-11-24T01:17:43.570Z,9.70
2017-11-24T01:20:11.101Z,9.70
2017-11-24T01:22:38.586Z,9.70
2017-11-24T01:25:06.857Z,9.60
2017-11-24T01:27:35.121Z,9.60
2017-11-24T01:30:02.618Z,9.50
2017-11-24T01:32:30.133Z,9.60
2017-11-24T01:34:57.636Z,9.60
2017-11-24T01:37:25.180Z,9.60
2017-11-24T01:39:53.445Z,9.50
2017-11-24T01:42:21.714Z,9.50
2017-11-24T01:44:49.226Z,9.40
2017-11-24T01:47:17.478Z,9.50
2017-11-24T01:49:44.994Z,9.40
2017-11-24T01:52:12.500Z,9.50
2017-11-24T01:54:40.017Z,9.60
2017-11-24T01:57:08.355Z,9.60
2017-11-24T01:59:35.868Z,9.60
2017-11-24T02:02:03.370Z,9.70
2017-11-24T02:04:30.870Z,9.70
2017-11-24T02:06:58.404Z,9.70
2017-11-24T02:09:25.902Z,9.80
2017-11-24T02:11:53.422Z,9.80
2017-11-24T02:14:20.919Z,9.80
2017-11-24T02:16:48.414Z,9.90
2017-11-24T02:19:15.939Z,9.90
2017-11-24T02:21:43.452Z,9.90
2017-11-24T02:24:10.964Z,9.90
2017-11-24T02:26:38.462Z,9.90
2017-11-24T02:29:05.980Z,9.90
2017-11-24T02:31:33.470Z,9.90
2017-11-24T02:34:00.962Z,9.80
2017-11-24T02:36:28.476Z,9.80
2017-11-24T02:38:56.746Z,9.80
2017-11-24T02:41:25.041Z,9.80
2017-11-24T02:43:52.544Z,9.70
2017-11-24T02:46:20.041Z,9.70
2017-11-24T02:48:48.326Z,9.60
2017-11-24T02:51:15.826Z,9.50
2017-11-24T02:53:43.359Z,9.50
2017-11-24T02:56:10.845Z,9.40
2017-11-24T02:58:38.339Z,9.40
2017-11-24T03:01:05.855Z,9.30
2017-11-24T03:03:33.363Z,9.30
2017-11-24T03:06:00.889Z,9.20
2017-11-24T03:08:28.379Z,9.20
2017-11-24T03:10:55.883Z,9.20
2017-11-24T03:13:23.402Z,9.10
2017-11-24T03:15:50.886Z,9.10
2017-11-24T03:18:18.412Z,9.10
2017-11-24T03:20:45.907Z,9.10
2017-11-24T03:23:13.403Z,9.10
2017-11-24T03:25:40.932Z,9.10
2017-11-24T03:28:08.433Z,9.10
2017-11-24T03:30:36.954Z,9.10
2017-11-24T03:33:05.231Z,9.20
2017-11-24T03:35:33.494Z,9.20
2017-11-24T03:38:01.016Z,9.10
2017-11-24T03:40:28.530Z,9.10
2017-11-24T03:42:56.821Z,9.00
2017-11-24T03:45:24.318Z,8.90
2017-11-24T03:47:51.845Z,9.00
2017-11-24T03:50:22.645Z,9.00
2017-11-24T03:52:50.154Z,8.90
2017-11-24T03:55:17.674Z,8.90
2017-11-24T03:57:45.955Z,8.90
2017-11-24T04:00:14.247Z,8.90
2017-11-24T04:02:41.733Z,8.80
2017-11-24T04:05:09.250Z,8.90
2017-11-24T04:07:37.510Z,9.00
2017-11-24T04:10:05.009Z,8.90
2017-11-24T04:12:32.531Z,8.90
2017-11-24T04:15:00.031Z,8.90
2017-11-24T04:17:27.551Z,8.90
2017-11-24T04:19:55.066Z,8.90
2017-11-24T04:22:22.583Z,8.90
2017-11-24T04:24:50.851Z,9.00
2017-11-24T04:27:18.343Z,8.90
2017-11-24T04:29:45.871Z,9.00
2017-11-24T04:32:13.364Z,8.90
2017-11-24T04:34:40.868Z,9.00
2017-11-24T04:37:08.371Z,8.90
2017-11-24T04:39:36.646Z,8.80
2017-11-24T04:42:04.904Z,8.90
2017-11-24T04:44:32.422Z,8.80
2017-11-24T04:46:59.912Z,8.90
2017-11-24T04:49:27.401Z,8.90
2017-11-24T04:51:55.697Z,8.90
2017-11-24T04:54:23.186Z,8.80
2017-11-24T04:56:50.745Z,8.90
2017-11-24T04:59:18.222Z,8.80
2017-11-24T05:01:45.737Z,8.80
2017-11-24T05:04:13.223Z,8.80
2017-11-24T05:06:40.713Z,8.80
2017-11-24T05:09:08.226Z,8.80
2017-11-24T05:11:35.717Z,8.90
2017-11-24T05:14:03.232Z,8.80
2017-11-24T05:16:31.513Z,8.80
2017-11-24T05:18:59.021Z,8.80
2017-11-24T05:21:26.509Z,8.80
2017-11-24T05:23:54.760Z,8.90
2017-11-24T05:26:22.496Z,8.80
2017-11-24T05:28:49.985Z,8.90
2017-11-24T05:31:17.501Z,8.90
2017-11-24T05:33:44.999Z,9.00
2017-11-24T05:36:12.509Z,9.00
2017-11-24T05:38:40.011Z,9.10
2017-11-24T05:41:08.498Z,9.10
2017-11-24T05:43:36.017Z,9.10
2017-11-24T05:46:03.515Z,9.10
2017-11-24T05:48:31.053Z,9.10
2017-11-24T05:51:00.596Z,9.10
2017-11-24T05:53:28.108Z,9.20
2017-11-24T05:55:55.600Z,9.20
2017-11-24T05:58:23.106Z,9.20
2017-11-24T06:00:50.629Z,9.30
2017-11-24T06:03:18.125Z,9.30
2017-11-24T06:05:45.636Z,9.20
2017-11-24T06:08:13.133Z,9.20
2017-11-24T06:10:40.682Z,9.20
2017-11-24T06:13:08.994Z,9.10
2017-11-24T06:15:36.498Z,9.00
2017-11-24T06:18:04.017Z,9.10
2017-11-24T06:20:31.521Z,9.00
2017-11-24T06:22:59.048Z,9.00
2017-11-24T06:25:26.728Z,8.90
2017-11-24T06:27:54.275Z,8.90
2017-11-24T06:30:21.789Z,8.80
2017-11-24T06:32:49.290Z,8.80
2017-11-24T06:35:16.802Z,8.70
2017-11-24T06:37:45.069Z,8.70
2017-11-24T06:40:12.583Z,8.70
2017-11-24T06:42:40.086Z,8.70
2017-11-24T06:45:07.582Z,8.70
2017-11-24T06:47:35.099Z,8.70
2017-11-24T06:50:02.616Z,8.70
2017-11-24T06:52:30.130Z,8.70
2017-11-24T06:54:58.397Z,8.70
2017-11-24T06:57:25.914Z,8.60
2017-11-24T06:59:53.415Z,8.70
2017-11-24T07:02:20.923Z,8.70
2017-11-24T07:04:48.450Z,8.80
2017-11-24T07:07:16.719Z,8.70
2017-11-24T07:09:45.126Z,8.70
2017-11-24T07:12:12.722Z,8.60
2017-11-24T07:14:40.327Z,8.70
2017-11-24T07:17:08.625Z,8.70
2017-11-24T07:19:36.536Z,8.60
2017-11-24T07:22:04.032Z,8.80
2017-11-24T07:24:32.326Z,8.80
2017-11-24T07:26:59.826Z,8.70
2017-11-24T07:29:27.342Z,8.90
2017-11-24T07:31:54.893Z,8.90
2017-11-24T07:34:23.155Z,8.90
2017-11-24T07:36:50.670Z,8.80
2017-11-24T07:39:18.937Z,8.90
2017-11-24T07:41:46.445Z,8.80
2017-11-24T07:44:13.945Z,9.00
2017-11-24T07:46:41.460Z,9.00
2017-11-24T07:49:08.969Z,9.00
2017-11-24T07:51:36.477Z,9.00
2017-11-24T07:54:03.998Z,9.00
2017-11-24T07:56:31.506Z,9.00
2017-11-24T07:58:59.030Z,9.10
2017-11-24T08:01:26.538Z,9.10
2017-11-24T08:03:54.833Z,9.20
2017-11-24T08:06:22.334Z,9.10
2017-11-24T08:08:49.833Z,9.20
2017-11-24T08:11:18.134Z,9.30
2017-11-24T08:13:45.650Z,9.20
2017-11-24T08:16:13.181Z,9.40
2017-11-24T08:18:40.681Z,9.40
2017-11-24T08:21:08.206Z,9.40
2017-11-24T08:23:35.698Z,9.60
2017-11-24T08:26:03.261Z,9.70
2017-11-24T08:28:30.977Z,9.70
2017-11-24T08:30:58.490Z,9.80
2017-11-24T08:33:27.518Z,10.00
2017-11-24T08:35:55.532Z,9.90
2017-11-24T08:38:23.102Z,10.10
2017-11-24T08:40:50.642Z,10.20
2017-11-24T08:43:18.147Z,10.30
2017-11-24T08:45:46.448Z,10.50
2017-11-24T08:51:20.017Z,10.60
2017-11-24T08:53:47.523Z,10.50
2017-11-24T08:56:15.048Z,10.50
2017-11-24T08:58:43.233Z,10.60
2017-11-24T09:01:11.514Z,10.50
2017-11-24T09:03:39.811Z,10.60
2017-11-24T09:06:07.321Z,10.50
2017-11-24T09:08:34.853Z,10.70
2017-11-24T09:11:02.369Z,10.80
2017-11-24T09:13:30.664Z,11.00
2017-11-24T09:15:58.995Z,10.90
2017-11-24T09:18:26.860Z,11.10
2017-11-24T09:20:54.394Z,11.10
2017-11-24T09:23:21.898Z,11.10
2017-11-24T09:25:49.426Z,11.10
2017-11-24T09:28:16.947Z,11.10
2017-11-24T09:30:44.489Z,11.10
2017-11-24T09:33:12.771Z,11.10
2017-11-24T09:35:41.061Z,11.20
2017-11-24T09:38:08.579Z,11.10
2017-11-24T09:40:36.095Z,11.20
2017-11-24T09:43:03.617Z,11.30
2017-11-24T09:45:31.896Z,11.30
2017-11-24T09:48:00.191Z,11.20
2017-11-24T09:50:27.698Z,11.10
2017-11-24T09:52:55.720Z,11.20
2017-11-24T09:55:23.226Z,11.30
2017-11-24T09:57:50.759Z,11.50
2017-11-24T10:00:18.274Z,11.60
2017-11-24T10:02:45.799Z,11.80
2017-11-24T10:05:13.335Z,12.00
2017-11-24T10:07:40.858Z,12.10
2017-11-24T10:10:09.305Z,12.10
2017-11-24T10:12:36.818Z,12.20
2017-11-24T10:15:04.353Z,12.30
2017-11-24T10:17:31.867Z,12.30
2017-11-24T10:19:59.380Z,12.50
2017-11-24T10:22:33.465Z,12.60
2017-11-24T10:25:00.969Z,12.40
2017-11-24T10:27:29.267Z,12.70
2017-11-24T10:29:56.783Z,12.60
2017-11-24T10:32:25.083Z,12.70
2017-11-24T10:34:53.376Z,12.80
2017-11-24T10:37:24.626Z,12.70
2017-11-24T10:39:52.168Z,12.90
2017-11-24T10:42:20.457Z,13.00
2017-11-24T10:44:47.974Z,12.90
2017-11-24T10:47:15.468Z,13.00
2017-11-24T10:49:43.878Z,13.10
2017-11-24T10:52:11.386Z,13.00
2017-11-24T10:54:39.680Z,13.20
2017-11-24T10:57:08.210Z,13.30
2017-11-24T10:59:35.734Z,13.20
2017-11-24T11:02:03.269Z,13.30
2017-11-24T11:04:30.766Z,13.30
2017-11-24T11:06:58.290Z,13.30
2017-11-24T11:09:26.566Z,13.30
2017-11-24T11:11:54.094Z,13.20
2017-11-24T11:14:21.595Z,13.40
2017-11-24T11:16:49.890Z,13.40
2017-11-24T11:19:17.403Z,13.30
2017-11-24T11:21:44.906Z,13.40
2017-11-24T11:24:12.429Z,13.50
2017-11-24T11:26:39.943Z,13.40
2017-11-24T11:29:07.492Z,13.50
2017-11-24T11:31:34.997Z,13.60
2017-11-24T11:34:02.530Z,13.70
2017-11-24T11:36:30.054Z,13.70
2017-11-24T11:38:58.341Z,14.00
2017-11-24T11:41:26.614Z,14.10
2017-11-24T11:43:54.878Z,14.10
2017-11-24T11:46:23.301Z,14.10
2017-11-24T11:48:50.794Z,14.00
2017-11-24T11:51:18.329Z,14.20
2017-11-24T11:53:45.844Z,14.30
2017-11-24T11:56:14.130Z,14.60
2017-11-24T11:58:42.439Z,14.70
2017-11-24T12:01:09.958Z,14.60
2017-11-24T12:03:38.222Z,14.50
2017-11-24T12:06:05.714Z,14.40
2017-11-24T12:08:33.234Z,14.50
2017-11-24T12:11:05.221Z,14.60
2017-11-24T12:13:33.509Z,14.60
2017-11-24T12:16:01.018Z,14.50
2017-11-24T12:18:32.210Z,14.50
2017-11-24T12:21:00.833Z,14.50
2017-11-24T12:23:29.282Z,14.30
2017-11-24T12:25:56.805Z,14.50
2017-11-24T12:28:24.305Z,14.40
2017-11-24T12:30:51.827Z,14.40
2017-11-24T12:33:19.325Z,14.30
2017-11-24T12:35:46.831Z,14.20
2017-11-24T12:38:16.957Z,14.10
2017-11-24T12:40:44.462Z,13.90
2017-11-24T12:43:11.973Z,13.80
2017-11-24T12:45:39.471Z,13.70
2017-11-24T12:48:07.762Z,13.60
2017-11-24T12:50:35.271Z,13.60
2017-11-24T12:53:02.790Z,13.60
2017-11-24T12:55:30.319Z,13.60
2017-11-24T12:57:58.577Z,13.40
2017-11-24T13:00:26.106Z,13.30
2017-11-24T13:02:53.615Z,13.40
2017-11-24T13:05:21.904Z,13.30
2017-11-24T13:07:49.414Z,13.20
2017-11-24T13:10:16.948Z,13.30
2017-11-24T13:12:44.467Z,13.30
2017-11-24T13:15:12.749Z,13.00
2017-11-24T13:17:41.042Z,13.00
2017-11-24T13:20:08.546Z,12.90
2017-11-24T13:22:36.094Z,12.90
2017-11-24T13:25:03.595Z,12.90
2017-11-24T13:27:31.892Z,12.70
2017-11-24T13:29:59.402Z,12.60
2017-11-24T13:32:26.929Z,12.60
2017-11-24T13:34:54.445Z,12.50
2017-11-24T13:37:21.959Z,12.30
2017-11-24T13:39:49.491Z,12.10
2017-11-24T13:42:17.012Z,12.00
2017-11-24T13:44:44.535Z,11.90
2017-11-24T13:47:15.622Z,11.80
2017-11-24T13:49:43.143Z,11.60
2017-11-24T13:52:10.651Z,11.60
2017-11-24T13:54:38.180Z,11.50
2017-11-24T13:57:05.720Z,11.50
2017-11-24T13:59:33.231Z,11.50
2017-11-24T14:02:01.522Z,11.40
2017-11-24T14:04:29.799Z,11.40
2017-11-24T14:06:58.094Z,11.30
2017-11-24T14:09:25.602Z,11.20
2017-11-24T14:11:53.114Z,11.30
2017-11-24T14:14:20.663Z,11.30
2017-11-24T14:16:48.171Z,11.30
2017-11-24T14:19:15.693Z,11.30
2017-11-24T14:21:43.210Z,11.20
2017-11-24T14:24:10.713Z,11.10
2017-11-24T14:26:38.235Z,11.10
2017-11-24T14:29:05.740Z,11.10
2017-11-24T14:31:34.035Z,11.00
2017-11-24T14:34:01.574Z,10.90
2017-11-24T14:36:29.110Z,11.00
2017-11-24T14:38:57.386Z,11.00
2017-11-24T14:41:25.666Z,11.00
2017-11-24T14:43:53.950Z,10.90
2017-11-24T14:46:21.471Z,10.80
2017-11-24T14:48:49.008Z,10.80
2017-11-24T14:51:16.514Z,10.80
2017-11-24T14:53:44.805Z,10.70
2017-11-24T14:56:12.332Z,10.60
2017-11-24T14:58:39.833Z,10.70
2017-11-24T15:01:07.375Z,10.70
2017-11-24T15:03:35.654Z,10.60
2017-11-24T15:06:03.959Z,10.60
2017-11-24T15:08:31.468Z,10.50
2017-11-24T15:10:59.062Z,10.60
2017-11-24T15:13:26.579Z,10.50
2017-11-24T15:15:54.086Z,10.50
2017-11-24T15:18:21.607Z,10.40
2017-11-24T15:20:49.114Z,10.40
2017-11-24T15:23:16.629Z,10.40
2017-11-24T15:25:44.130Z,10.40
2017-11-24T15:28:11.648Z,10.40
2017-11-24T15:30:39.147Z,10.40
2017-11-24T15:33:06.691Z,10.30
2017-11-24T15:35:34.950Z,10.20
2017-11-24T15:38:02.453Z,10.20
2017-11-24T15:40:29.989Z,10.20
2017-11-24T15:42:58.251Z,10.30
2017-11-24T15:45:26.544Z,10.30
2017-11-24T15:47:54.814Z,10.30
2017-11-24T15:50:23.121Z,10.20
2017-11-24T15:52:50.627Z,10.20
2017-11-24T15:55:18.163Z,10.20
2017-11-24T15:57:45.677Z,10.20
2017-11-24T16:00:14.127Z,10.20
2017-11-24T16:02:41.646Z,10.20
2017-11-24T16:05:09.299Z,10.20
2017-11-24T16:07:36.842Z,10.20
2017-11-24T16:10:05.114Z,10.20
2017-11-24T16:12:33.411Z,10.20
2017-11-24T16:15:00.938Z,10.20
2017-11-24T16:17:28.466Z,10.20
2017-11-24T16:19:55.970Z,10.20
2017-11-24T16:22:24.287Z,10.20
2017-11-24T16:24:51.811Z,10.10
2017-11-24T16:27:20.090Z,10.10
2017-11-24T16:29:48.387Z,10.10
2017-11-24T16:32:15.898Z,10.10
2017-11-24T16:34:43.441Z,10.10
2017-11-24T16:37:10.945Z,10.10
2017-11-24T16:39:39.218Z,10.10
2017-11-24T16:42:07.509Z,10.20
2017-11-24T16:44:35.775Z,10.10
2017-11-24T16:47:04.069Z,10.10
2017-11-24T16:49:31.578Z,10.00
2017-11-24T16:51:59.106Z,10.10
2017-11-24T16:54:26.614Z,10.10
2017-11-24T16:56:54.143Z,10.10
2017-11-24T16:59:21.645Z,10.10
2017-11-24T17:01:49.914Z,10.00
2017-11-24T17:04:17.430Z,9.90
2017-11-24T17:06:45.002Z,10.00
2017-11-24T17:09:12.532Z,10.00
2017-11-24T17:11:40.048Z,10.00
2017-11-24T17:14:07.594Z,10.00
2017-11-24T17:16:35.100Z,10.00
2017-11-24T17:19:02.613Z,10.00
2017-11-24T17:21:30.139Z,10.00
2017-11-24T17:23:57.643Z,10.00
2017-11-24T17:26:25.188Z,10.00
2017-11-24T17:28:52.697Z,10.00
2017-11-24T17:31:20.212Z,10.10
2017-11-24T17:33:47.728Z,10.00
2017-11-24T17:36:15.230Z,10.00
2017-11-24T17:38:42.754Z,10.00
2017-11-24T17:41:10.271Z,10.00
2017-11-24T17:43:38.570Z,10.10
2017-11-24T17:46:08.760Z,10.00
2017-11-24T17:48:36.292Z,10.10
2017-11-24T17:51:03.802Z,10.10
2017-11-24T17:53:32.064Z,10.10
2017-11-24T17:56:00.352Z,10.10
2017-11-24T17:58:28.621Z,10.10
2017-11-24T18:00:56.258Z,10.00
2017-11-24T18:03:23.766Z,10.10
2017-11-24T18:05:51.294Z,10.10
2017-11-24T18:08:18.794Z,10.10
2017-11-24T18:10:46.313Z,10.10
2017-11-24T18:13:13.843Z,10.00
2017-11-24T18:15:42.110Z,10.00
2017-11-24T18:18:09.633Z,10.00
2017-11-24T18:20:37.907Z,10.10
2017-11-24T18:23:06.188Z,10.10
2017-11-24T18:25:33.717Z,10.00
2017-11-24T18:28:01.218Z,10.10
2017-11-24T18:30:28.756Z,10.00
2017-11-24T18:32:57.035Z,10.00
2017-11-24T18:35:25.330Z,10.00
2017-11-24T18:37:52.852Z,9.90
2017-11-24T18:40:21.329Z,9.90
2017-11-24T18:42:48.851Z,9.90
2017-11-24T18:45:16.357Z,9.90
2017-11-24T18:47:43.864Z,9.90
2017-11-24T18:50:11.381Z,9.90
2017-11-24T18:52:38.907Z,9.90
2017-11-24T18:55:06.401Z,9.80
2017-11-24T18:57:34.683Z,9.80
2017-11-24T19:00:02.972Z,9.90
2017-11-24T19:02:31.237Z,9.90
2017-11-24T19:04:58.757Z,9.80
2017-11-24T19:07:26.258Z,10.00
2017-11-24T19:09:53.752Z,9.90
2017-11-24T19:12:21.279Z,9.80
2017-11-24T19:14:49.545Z,9.80
2017-11-24T19:17:17.062Z,9.70
2017-11-24T19:19:44.558Z,9.80
2017-11-24T19:22:12.058Z,9.70
2017-11-24T19:24:39.582Z,9.70
2017-11-24T19:27:07.101Z,9.70
2017-11-24T19:29:34.617Z,9.80
2017-11-24T19:32:07.603Z,9.70
2017-11-24T19:34:35.890Z,9.60
2017-11-24T19:37:03.394Z,9.50
2017-11-24T19:39:30.913Z,9.60
2017-11-24T19:41:59.196Z,9.60
2017-11-24T19:44:26.689Z,9.60
2017-11-24T19:46:54.216Z,9.60
2017-11-24T19:49:21.709Z,9.60
2017-11-24T19:51:49.230Z,9.60
2017-11-24T19:54:16.732Z,9.50
2017-11-24T19:56:44.237Z,9.50
2017-11-24T19:59:12.525Z,9.50
2017-11-24T20:01:40.790Z,9.50
2017-11-24T20:04:09.077Z,9.50
2017-11-24T20:06:36.572Z,9.40
2017-11-24T20:09:04.099Z,9.50
2017-11-24T20:11:31.619Z,9.50
2017-11-24T20:14:01.714Z,9.40
2017-11-24T20:16:29.314Z,9.50
2017-11-24T20:18:56.823Z,9.50
2017-11-24T20:21:24.342Z,9.50
2017-11-24T20:23:51.838Z,9.30
2017-11-24T20:26:19.334Z,9.30
2017-11-24T20:28:46.873Z,9.30
2017-11-24T20:31:15.286Z,9.20
2017-11-24T20:33:42.807Z,9.30
2017-11-24T20:36:10.340Z,9.30
2017-11-24T20:38:38.611Z,9.30
2017-11-24T20:41:06.906Z,9.30
2017-11-24T20:43:34.426Z,9.20
2017-11-24T20:46:02.786Z,9.20
2017-11-24T20:48:32.206Z,9.10
2017-11-24T20:50:59.712Z,9.20
2017-11-24T20:53:27.241Z,9.30
2017-11-24T20:55:55.514Z,9.30
2017-11-24T20:58:23.030Z,9.20
2017-11-24T21:00:51.546Z,9.30
2017-11-24T21:03:19.080Z,9.30
2017-11-24T21:05:46.621Z,9.30
2017-11-24T21:08:14.186Z,9.30
2017-11-24T21:10:42.825Z,9.30
2017-11-24T21:13:11.465Z,9.30
2017-11-24T21:15:39.798Z,9.30
2017-11-24T21:18:08.073Z,9.30
2017-11-24T21:20:36.383Z,9.20
2017-11-24T21:23:03.897Z,9.10
2017-11-24T21:25:31.399Z,9.20
2017-11-24T21:27:58.928Z,9.20
2017-11-24T21:30:27.191Z,9.20
2017-11-24T21:32:54.723Z,9.10
2017-11-24T21:35:22.228Z,9.20
2017-11-24T21:37:50.510Z,9.20
2017-11-24T21:40:18.782Z,9.10
2017-11-24T21:42:47.054Z,9.10
2017-11-24T21:45:15.341Z,9.10
2017-11-24T21:47:43.606Z,9.10
2017-11-24T21:50:12.910Z,9.00
2017-11-24T21:52:41.175Z,9.00
2017-11-24T21:55:08.706Z,9.00
2017-11-24T21:57:36.200Z,9.00
2017-11-24T22:00:04.469Z,8.90
2017-11-24T22:02:31.995Z,8.90
2017-11-24T22:04:59.507Z,8.90
2017-11-24T22:07:27.783Z,9.00
2017-11-24T22:09:56.062Z,9.00
2017-11-24T22:12:24.349Z,9.00
2017-11-24T22:14:52.622Z,9.00
2017-11-24T22:17:20.930Z,9.00
2017-11-24T22:19:48.446Z,8.90
2017-11-24T22:22:16.710Z,8.90
2017-11-24T22:24:44.226Z,8.90
2017-11-24T22:27:11.725Z,8.90
2017-11-24T22:29:39.241Z,8.80
2017-11-24T22:32:07.671Z,8.80
2017-11-24T22:34:35.193Z,8.80
2017-11-24T22:37:02.682Z,8.70
2017-11-24T22:39:30.176Z,8.80
2017-11-24T22:41:58.456Z,8.80
2017-11-24T22:44:26.718Z,8.80
2017-11-24T22:46:55.018Z,8.80
2017-11-24T22:49:22.532Z,8.70
2017-11-24T22:51:50.034Z,8.70
2017-11-24T22:54:17.563Z,8.70
2017-11-24T22:56:45.061Z,8.70
2017-11-24T22:59:12.592Z,8.80
2017-11-24T23:01:40.856Z,8.80
2017-11-24T23:04:08.367Z,8.70
2017-11-24T23:06:35.888Z,8.80
2017-11-24T23:09:04.155Z,8.80
2017-11-24T23:11:31.641Z,8.70
2017-11-24T23:13:59.931Z,8.80
2017-11-24T23:16:27.438Z,8.80
2017-11-24T23:18:54.954Z,8.80
2017-11-24T23:21:22.448Z,8.80
2017-11-24T23:23:49.962Z,8.80
2017-11-24T23:26:17.468Z,8.80
2017-11-24T23:28:44.980Z,8.80
2017-11-24T23:31:12.499Z,8.80
2017-11-24T23:33:39.991Z,8.70
2017-11-24T23:36:08.273Z,8.80
2017-11-24T23:38:36.538Z,8.80
2017-11-24T23:41:04.823Z,8.80
2017-11-24T23:43:33.090Z,8.80
2017-11-24T23:46:01.382Z,8.80
2017-11-24T23:48:28.874Z,8.70
2017-11-24T23:50:56.387Z,8.70
2017-11-24T23:53:24.649Z,8.70
2017-11-24T23:55:52.138Z,8.60
2017-11-24T23:58:19.660Z,8.70
